Grantley Adams, Barbados

12:18 AM AST on September 01, 2015 (GMT -0400)
Hopefield Plantation | | Change Station
CLOSE
Current Station
Personal Weather Station
Location: Saint Philip, SAINT PHILIP
Elevation: 236 ft
Nearby Weather Stations

Elev 236 ft 13.09 °N, 59.49 °W | Updated 14 seconds ago

Mostly Cloudy
Mostly Cloudy
80.8 °F
Feels Like 90 °F
N
4.0
Wind Variable Wind from ESE
Gusts 4.9 mph

Today
High -- | Low -- °F
--% Chance of Precip.
Yesterday
High -- | Low -- °F
Precip. -- in
5:46 AM 6:08 PM
Waning Gibbous, 91% visible
Pressure 29.98 in
Visibility 6.2 miles
Clouds Scattered Clouds 1600 ft
Mostly Cloudy 26000 ft
Heat Index 90 °F
Dew Point 80 °F
Humidity 98%
Rainfall 0.00 in
Snow Depth Not available.
UV 0.0 out of 12
Pollen Not available.
Air Quality Not available.
Flu Activity Not available.
METAR TBPB 010400Z 09010KT 9999 SCT016 BKN260 28/26 Q1015 NOSIG
Pressure 29.98 in
Visibility 6.2 miles
Clouds Scattered Clouds 1600 ft
Mostly Cloudy 26000 ft
Heat Index 90 °F
Dew Point 80 °F
Humidity 98%
Rainfall 0.00 in
Snow Depth Not available.
UV 0.0 out of 12
Pollen Not available.
Air Quality Not available.
Flu Activity Not available.
METAR TBPB 010400Z 09010KT 9999 SCT016 BKN260 28/26 Q1015 NOSIG

10-Day Weather Forecast

×

Almanac

Astronomy

Sep. 01, 2015 Rise Set
Actual Time
Civil Twilight
Nautical Twilight
Astronomical Twilight
Moon
Length of Visible Light
Length of Day
Tomorrow will be .
, % of the Moon is Illuminated

Today's Extremes

Country Highs Country Lows

Community

WunderPhotos

Upload Photos

1,851,477 photos uploaded!

WunderBlogs® & News

Nearby

Air Quality

  Air Quality AQ Index Pollutant
Not available.

Snow Depth

Station Depth Elevation

Earthquake Activity

City Distance Mag. Time & Date
Minimum magnitude displayed is 2.5.

Coastal Water Temperatures

Place Temperature

Stations

Nearby Weather Stations

Station Location Temp. Windchill Dew Point Humidity Wind Precip. Elev Updated Type